createdAt,value
2019-01-22T00:02:06.350Z,101279.80
2019-01-22T00:04:34.634Z,101272.05
2019-01-22T00:07:02.914Z,101274.58
2019-01-22T00:09:31.337Z,101267.47
2019-01-22T00:11:59.810Z,101253.52
2019-01-22T00:14:30.753Z,101250.72
2019-01-22T00:16:59.050Z,101249.02
2019-01-22T00:19:27.314Z,101247.23
2019-01-22T00:21:55.713Z,101249.33
2019-01-22T00:24:23.982Z,101236.68
2019-01-22T00:26:52.247Z,101243.33
2019-01-22T00:29:20.587Z,101232.84
2019-01-22T00:31:48.976Z,101230.88
2019-01-22T00:34:17.282Z,101232.43
2019-01-22T00:36:45.592Z,101227.67
2019-01-22T00:39:14.009Z,101226.50
2019-01-22T00:41:42.338Z,101229.39
2019-01-22T00:44:10.791Z,101216.02
2019-01-22T00:46:39.212Z,101221.87
2019-01-22T00:49:07.472Z,101215.94
2019-01-22T00:51:35.853Z,101208.72
2019-01-22T00:54:04.404Z,101204.05
2019-01-22T00:56:32.720Z,101204.20
2019-01-22T00:59:01.037Z,101198.36
2019-01-22T01:01:29.906Z,101195.36
2019-01-22T01:03:58.204Z,101193.89
2019-01-22T01:06:26.466Z,101192.41
2019-01-22T01:08:54.926Z,101176.14
2019-01-22T01:11:23.191Z,101181.77
2019-01-22T01:13:51.510Z,101177.33
2019-01-22T01:16:19.786Z,101164.64
2019-01-22T01:18:48.053Z,101160.27
2019-01-22T01:21:16.395Z,101157.54
2019-01-22T01:23:44.871Z,101151.80
2019-01-22T01:26:13.182Z,101148.69
2019-01-22T01:28:41.456Z,101147.28
2019-01-22T01:31:09.726Z,101143.90
2019-01-22T01:33:38.015Z,101137.03
2019-01-22T01:36:06.405Z,101130.00
2019-01-22T01:38:35.046Z,101126.97
2019-01-22T01:41:03.314Z,101117.16
2019-01-22T01:43:31.630Z,101114.93
2019-01-22T01:45:59.922Z,101114.81
2019-01-22T01:48:28.206Z,101107.63
2019-01-22T01:50:56.603Z,101108.36
2019-01-22T01:53:25.250Z,101104.67
2019-01-22T01:55:53.563Z,101099.20
2019-01-22T01:58:21.845Z,101105.58
2019-01-22T02:00:50.131Z,101102.84
2019-01-22T02:03:18.391Z,101095.91
2019-01-22T02:05:46.847Z,101098.70
2019-01-22T02:08:15.472Z,101092.78
2019-01-22T02:10:43.734Z,101088.00
2019-01-22T02:13:12.035Z,101082.91
2019-01-22T02:15:58.469Z,101085.49
2019-01-22T02:18:38.771Z,101074.87
2019-01-22T02:21:13.079Z,101070.36
2019-01-22T02:24:10.588Z,101065.05
2019-01-22T02:26:48.191Z,101057.22
2019-01-22T02:29:19.752Z,101052.94
2019-01-22T02:32:02.637Z,101044.16
2019-01-22T02:34:43.086Z,101037.37
2019-01-22T02:37:26.571Z,101036.84
2019-01-22T02:40:04.055Z,101025.05
2019-01-22T02:42:47.725Z,101017.30
2019-01-22T02:45:34.251Z,101011.41
2019-01-22T02:48:06.223Z,100999.31
2019-01-22T02:50:52.609Z,100997.08
2019-01-22T02:53:38.803Z,100993.09
2019-01-22T02:56:35.620Z,100994.42
2019-01-22T02:59:25.597Z,100986.19
2019-01-22T03:02:16.462Z,100978.87
2019-01-22T03:04:59.643Z,100973.86
2019-01-22T03:07:31.180Z,100969.80
2019-01-22T03:10:11.835Z,100963.95
2019-01-22T03:12:58.543Z,100959.48
2019-01-22T03:15:46.602Z,100952.23
2019-01-22T03:18:18.136Z,100953.95
2019-01-22T03:20:57.966Z,100951.52
2019-01-22T03:23:38.285Z,100944.65
2019-01-22T03:26:35.452Z,100936.61
2019-01-22T03:29:29.790Z,100934.48
2019-01-22T03:32:18.070Z,100938.31
2019-01-22T03:35:18.269Z,100933.00
2019-01-22T03:38:09.947Z,100931.45
2019-01-22T03:40:59.336Z,100925.05
2019-01-22T03:43:33.955Z,100920.45
2019-01-22T03:46:11.406Z,100919.36
2019-01-22T03:49:04.134Z,100926.52
2019-01-22T03:51:35.710Z,100921.14
2019-01-22T03:54:07.248Z,100920.38
2019-01-22T03:57:01.484Z,100915.75
2019-01-22T03:59:30.155Z,100909.61
2019-01-22T04:01:58.406Z,100901.16
2019-01-22T04:04:26.847Z,100900.13
2019-01-22T04:06:56.353Z,100894.67
2019-01-22T04:09:27.523Z,100890.62
2019-01-22T04:11:55.778Z,100884.78
2019-01-22T04:14:24.041Z,100883.98
2019-01-22T04:16:52.355Z,100882.05
2019-01-22T04:19:20.665Z,100880.95
2019-01-22T04:21:48.982Z,100878.00
2019-01-22T04:24:37.805Z,100872.39
2019-01-22T04:27:09.380Z,100875.19
2019-01-22T04:30:00.251Z,100867.69
2019-01-22T04:32:31.895Z,100863.41
2019-01-22T04:35:18.002Z,100859.08
2019-01-22T04:37:49.575Z,100847.86
2019-01-22T04:40:30.441Z,100849.72
2019-01-22T04:43:11.033Z,100847.41
2019-01-22T04:46:00.634Z,100831.42
2019-01-22T04:48:48.426Z,100832.47
2019-01-22T04:51:19.955Z,100822.52
2019-01-22T04:54:00.506Z,100813.37
2019-01-22T04:56:46.920Z,100818.98
2019-01-22T04:59:21.102Z,100803.52
2019-01-22T05:01:58.659Z,100801.29
2019-01-22T05:04:32.922Z,100790.19
2019-01-22T05:07:27.178Z,100785.16
2019-01-22T05:10:17.002Z,100779.36
2019-01-22T05:13:07.292Z,100779.28
2019-01-22T05:15:55.262Z,100781.17
2019-01-22T05:18:29.480Z,100772.42
2019-01-22T05:21:23.588Z,100772.95
2019-01-22T05:24:17.808Z,100773.75
2019-01-22T05:27:18.149Z,100770.56
2019-01-22T05:29:52.420Z,100767.91
2019-01-22T05:32:35.890Z,100775.95
2019-01-22T05:35:25.463Z,100772.50
2019-01-22T05:38:05.871Z,100769.23
2019-01-22T05:40:43.284Z,100760.41
2019-01-22T05:43:26.705Z,100756.66
2019-01-22T05:46:01.147Z,100752.98
2019-01-22T05:48:44.813Z,100755.64
2019-01-22T05:51:18.961Z,100750.91
2019-01-22T05:54:02.525Z,100747.45
2019-01-22T05:56:34.065Z,100744.65
2019-01-22T05:59:35.807Z,100737.72
2019-01-22T06:02:07.563Z,100732.57
2019-01-22T06:04:57.314Z,100730.72
2019-01-22T06:07:34.771Z,100720.94
2019-01-22T06:10:15.224Z,100720.56
2019-01-22T06:12:46.786Z,100713.44
2019-01-22T06:15:49.877Z,100708.06
2019-01-22T06:18:27.026Z,100701.93
2019-01-22T06:21:01.404Z,100685.45
2019-01-22T06:23:47.827Z,100683.90
2019-01-22T06:26:25.387Z,100680.22
2019-01-22T06:29:17.857Z,100675.48
2019-01-22T06:31:55.442Z,100670.71
2019-01-22T06:34:32.829Z,100670.11
2019-01-22T06:37:13.258Z,100670.41
2019-01-22T06:39:59.156Z,100667.83
2019-01-22T06:42:36.723Z,100659.08
2019-01-22T06:45:08.307Z,100669.08
2019-01-22T06:47:39.865Z,100656.92
2019-01-22T06:50:26.482Z,100648.97
2019-01-22T06:52:58.025Z,100650.06
2019-01-22T06:55:29.598Z,100645.12
2019-01-22T06:58:07.271Z,100636.15
2019-01-22T07:01:00.115Z,100627.36
2019-01-22T07:03:46.965Z,100625.61
2019-01-22T07:06:30.543Z,100621.70
2019-01-22T07:09:23.522Z,100612.91
2019-01-22T07:11:58.063Z,100608.70
2019-01-22T07:14:50.686Z,100607.61
2019-01-22T07:17:34.055Z,100602.84
2019-01-22T07:20:08.525Z,100600.12
2019-01-22T07:22:45.984Z,100600.91
2019-01-22T07:25:20.209Z,100592.95
2019-01-22T07:28:23.292Z,100600.64
2019-01-22T07:31:05.859Z,100605.26
2019-01-22T07:33:49.364Z,100598.09
2019-01-22T07:36:35.873Z,100589.51
2019-01-22T07:39:22.300Z,100587.72
2019-01-22T07:42:11.912Z,100588.55
2019-01-22T07:44:52.366Z,100583.17
2019-01-22T07:47:35.906Z,100574.92
2019-01-22T07:50:13.141Z,100573.06
2019-01-22T07:52:59.441Z,100577.11
2019-01-22T07:55:42.957Z,100579.66
2019-01-22T07:58:14.506Z,100570.11
2019-01-22T08:00:48.821Z,100574.66
2019-01-22T08:04:00.923Z,100562.95
2019-01-22T08:06:36.801Z,100565.73
2019-01-22T08:09:11.277Z,100563.14
2019-01-22T08:12:01.295Z,100564.73
2019-01-22T08:15:01.844Z,100557.02
2019-01-22T08:17:36.054Z,100556.28
2019-01-22T08:20:38.086Z,100557.91
2019-01-22T08:23:21.569Z,100554.42
2019-01-22T08:26:04.827Z,100547.86
2019-01-22T08:28:54.526Z,100546.53
2019-01-22T08:31:31.622Z,100538.07
2019-01-22T08:34:18.257Z,100530.61
2019-01-22T08:36:52.340Z,100534.09
2019-01-22T08:39:23.947Z,100525.48
2019-01-22T08:42:13.779Z,100531.02
2019-01-22T08:44:54.296Z,100524.22
2019-01-22T08:47:37.825Z,100526.34
2019-01-22T08:50:11.903Z,100523.62
2019-01-22T08:52:43.505Z,100515.79
2019-01-22T08:55:17.659Z,100511.48
2019-01-22T08:57:55.089Z,100509.69
2019-01-22T09:00:53.846Z,100501.97
2019-01-22T09:03:31.020Z,100502.46
2019-01-22T09:06:05.339Z,100499.88
2019-01-22T09:08:42.515Z,100486.61
2019-01-22T09:11:16.855Z,100486.97
2019-01-22T09:14:09.641Z,100485.16
2019-01-22T09:17:03.471Z,100471.95
2019-01-22T09:19:40.715Z,100462.23
2019-01-22T09:22:15.404Z,100463.49
2019-01-22T09:24:55.684Z,100453.38
2019-01-22T09:27:36.198Z,100454.77
2019-01-22T09:30:13.746Z,100443.23
2019-01-22T09:32:48.249Z,100445.46
2019-01-22T09:35:44.251Z,100433.33
2019-01-22T09:38:12.851Z,100426.01
2019-01-22T09:40:41.113Z,100422.34
2019-01-22T09:43:12.513Z,100420.62
2019-01-22T09:45:40.960Z,100407.66
2019-01-22T09:48:09.217Z,100404.26
2019-01-22T09:50:37.543Z,100388.69
2019-01-22T09:53:05.830Z,100381.91
2019-01-22T09:55:34.160Z,100385.14
2019-01-22T09:58:02.555Z,100380.27
2019-01-22T10:00:31.495Z,100374.23
2019-01-22T10:02:59.750Z,100364.45
2019-01-22T10:05:28.843Z,100369.02
2019-01-22T10:07:57.265Z,100365.87
2019-01-22T10:10:25.796Z,100353.71
2019-01-22T10:12:54.058Z,100355.42
2019-01-22T10:15:22.509Z,100354.93
2019-01-22T10:17:50.795Z,100352.94
2019-01-22T10:20:21.241Z,100348.17
2019-01-22T10:22:49.582Z,100355.98
2019-01-22T10:25:17.908Z,100343.61
2019-01-22T10:27:46.189Z,100333.84
2019-01-22T10:30:21.035Z,100340.62
2019-01-22T10:32:49.290Z,100341.74
2019-01-22T10:35:17.551Z,100339.67
2019-01-22T10:37:45.900Z,100339.42
2019-01-22T10:40:16.842Z,100338.37
2019-01-22T10:42:45.136Z,100330.16
2019-01-22T10:45:15.557Z,100328.86
2019-01-22T10:47:43.867Z,100341.91
2019-01-22T10:50:14.475Z,100331.56
2019-01-22T10:52:42.737Z,100333.17
2019-01-22T10:55:12.966Z,100327.08
2019-01-22T10:57:41.289Z,100326.89
2019-01-22T11:00:15.780Z,100320.54
2019-01-22T11:02:44.044Z,100317.45
2019-01-22T11:05:21.623Z,100312.13
2019-01-22T11:07:49.923Z,100312.48
2019-01-22T11:10:18.192Z,100317.63
2019-01-22T11:12:46.476Z,100311.27
2019-01-22T11:15:14.757Z,100305.44
2019-01-22T11:17:43.043Z,100302.59
2019-01-22T11:20:14.669Z,100294.89
2019-01-22T11:22:42.932Z,100282.73
2019-01-22T11:25:13.690Z,100278.77
2019-01-22T11:27:42.820Z,100279.91
2019-01-22T11:30:14.373Z,100263.45
2019-01-22T11:32:42.661Z,100261.64
2019-01-22T11:35:16.960Z,100262.24
2019-01-22T11:37:45.249Z,100258.30
2019-01-22T11:40:19.677Z,100254.63
2019-01-22T11:42:48.077Z,100251.76
2019-01-22T11:45:16.340Z,100243.28
2019-01-22T11:47:44.603Z,100234.55
2019-01-22T11:50:15.671Z,100237.26
2019-01-22T11:52:43.959Z,100232.81
2019-01-22T11:55:12.351Z,100223.58
2019-01-22T11:57:40.612Z,100222.59
2019-01-22T12:00:15.197Z,100218.38
2019-01-22T12:02:43.463Z,100209.05
2019-01-22T12:05:11.859Z,100200.84
2019-01-22T12:07:40.139Z,100210.73
2019-01-22T12:10:11.625Z,100198.47
2019-01-22T12:12:39.982Z,100202.48
2019-01-22T12:15:16.565Z,100193.97
2019-01-22T12:17:44.843Z,100185.45
2019-01-22T12:20:21.882Z,100186.52
2019-01-22T12:22:52.046Z,100183.34
2019-01-22T12:25:20.858Z,100172.66
2019-01-22T12:27:49.116Z,100174.26
2019-01-22T12:30:27.203Z,100162.23
2019-01-22T12:32:55.480Z,100154.78
2019-01-22T12:35:23.736Z,100150.75
2019-01-22T12:37:52.052Z,100140.38
2019-01-22T12:40:23.015Z,100129.98
2019-01-22T12:42:51.278Z,100137.17
2019-01-22T12:45:25.325Z,100135.30
2019-01-22T12:47:54.318Z,100132.64
2019-01-22T12:50:25.756Z,100132.40
2019-01-22T12:52:54.504Z,100124.40
2019-01-22T12:55:22.772Z,100124.13
2019-01-22T12:57:51.086Z,100124.41
2019-01-22T13:00:24.800Z,100120.95
2019-01-22T13:02:53.045Z,100127.08
2019-01-22T13:05:39.625Z,100127.09
2019-01-22T13:08:07.879Z,100121.77
2019-01-22T13:10:36.175Z,100116.98
2019-01-22T13:13:04.811Z,100109.78
2019-01-22T13:15:33.099Z,100115.13
2019-01-22T13:18:01.363Z,100104.19
2019-01-22T13:20:29.759Z,100108.73
2019-01-22T13:22:58.186Z,100102.61
2019-01-22T13:25:26.479Z,100100.71
2019-01-22T13:27:54.896Z,100095.63
2019-01-22T13:30:28.064Z,100085.75
2019-01-22T13:32:56.492Z,100086.30
2019-01-22T13:35:29.344Z,100088.19
2019-01-22T13:37:57.688Z,100086.03
2019-01-22T13:40:28.539Z,100087.92
2019-01-22T13:42:58.661Z,100073.77
2019-01-22T13:45:30.127Z,100081.77
2019-01-22T13:47:59.979Z,100075.36
2019-01-22T13:50:29.768Z,100075.63
2019-01-22T13:53:00.250Z,100071.35
2019-01-22T13:55:34.246Z,100065.23
2019-01-22T13:58:05.743Z,100059.89
2019-01-22T14:00:34.179Z,100056.42
2019-01-22T14:03:11.067Z,100055.08
2019-01-22T14:05:42.250Z,100047.64
2019-01-22T14:08:12.647Z,100051.91
2019-01-22T14:10:41.161Z,100040.97
2019-01-22T14:13:09.729Z,100037.52
2019-01-22T14:15:40.343Z,100038.30
2019-01-22T14:18:09.541Z,100036.16
2019-01-22T14:20:38.145Z,100035.66
2019-01-22T14:23:10.485Z,100032.72
2019-01-22T14:25:41.794Z,100032.19
2019-01-22T14:28:10.153Z,100030.34
2019-01-22T14:30:39.156Z,100026.85
2019-01-22T14:33:07.546Z,100032.47
2019-01-22T14:35:35.852Z,100030.58
2019-01-22T14:38:06.911Z,100030.86
2019-01-22T14:40:38.235Z,100032.46
2019-01-22T14:43:06.680Z,100026.07
2019-01-22T14:45:34.965Z,100033.80
2019-01-22T14:48:03.455Z,100035.67
2019-01-22T14:50:33.464Z,100038.84
2019-01-22T14:53:02.085Z,100037.27
2019-01-22T14:55:53.043Z,100030.83
2019-01-22T14:58:08.524Z,100031.34
2019-01-22T15:00:38.908Z,100035.59
2019-01-22T15:03:07.428Z,100029.45
2019-01-22T15:18:30.040Z,100016.03
2019-01-22T15:24:15.655Z,100013.13
2019-01-22T15:26:46.081Z,100016.86
2019-01-22T15:29:14.443Z,100004.58
2019-01-22T15:31:42.725Z,100007.25
2019-01-22T15:34:24.664Z,100004.33
2019-01-22T15:47:25.889Z,99998.31
2019-01-22T15:49:54.331Z,99992.97
2019-01-22T15:52:22.751Z,99993.48
2019-01-22T15:54:51.061Z,99984.70
2019-01-22T15:57:21.881Z,99990.81
2019-01-22T16:03:02.796Z,99982.00
2019-01-22T16:08:59.903Z,99977.22
2019-01-22T16:11:56.770Z,99972.13
2019-01-22T16:17:40.361Z,99967.35
2019-01-22T16:20:18.743Z,99968.14
2019-01-22T16:22:44.671Z,99963.90
2019-01-22T16:25:32.436Z,99964.13
2019-01-22T16:28:00.756Z,99963.36
2019-01-22T16:30:29.074Z,99961.22
2019-01-22T16:32:57.509Z,99960.16
2019-01-22T16:35:26.294Z,99962.26
2019-01-22T16:37:59.565Z,99964.67
2019-01-22T16:44:30.139Z,99955.63
2019-01-22T16:46:58.508Z,99957.22
2019-01-22T16:49:48.337Z,99961.25
2019-01-22T16:52:19.620Z,99955.63
2019-01-22T16:54:51.800Z,99955.89
2019-01-22T16:57:21.587Z,99952.95
2019-01-22T16:59:49.865Z,99955.61
2019-01-22T17:02:19.618Z,99960.66
2019-01-22T17:04:48.533Z,99955.86
2019-01-22T17:07:18.726Z,99955.57
2019-01-22T17:09:51.487Z,99957.70
2019-01-22T17:12:19.939Z,99956.92
2019-01-22T17:14:53.904Z,99948.64
2019-01-22T17:17:24.223Z,99943.84
2019-01-22T17:19:52.490Z,99949.14
2019-01-22T17:22:20.899Z,99941.42
2019-01-22T17:24:49.273Z,99941.13
2019-01-22T17:27:17.630Z,99939.00
2019-01-22T17:29:48.931Z,99936.36
2019-01-22T17:32:26.147Z,99941.64
2019-01-22T17:34:52.164Z,99940.83
2019-01-22T17:37:20.496Z,99937.31
2019-01-22T17:42:48.722Z,99930.92
2019-01-22T17:45:19.686Z,99933.58
2019-01-22T17:47:48.205Z,99926.41
2019-01-22T17:50:17.348Z,99930.66
2019-01-22T17:52:45.648Z,99926.66
2019-01-22T17:55:14.517Z,99926.11
2019-01-22T17:57:42.785Z,99922.39
2019-01-22T18:00:15.941Z,99917.58
2019-01-22T18:02:44.247Z,99916.23
2019-01-22T18:05:14.668Z,99910.07
2019-01-22T18:07:43.007Z,99914.03
2019-01-22T18:10:13.845Z,99909.78
2019-01-22T18:12:42.162Z,99912.43
2019-01-22T18:15:12.837Z,99911.88
2019-01-22T18:17:41.094Z,99907.58
2019-01-22T18:20:27.258Z,99901.47
2019-01-22T18:22:55.528Z,99910.24
2019-01-22T18:25:23.845Z,99903.09
2019-01-22T18:27:52.157Z,99909.99
2019-01-22T18:30:22.608Z,99901.19
2019-01-22T18:32:50.948Z,99900.14
2019-01-22T18:35:28.494Z,99894.06
2019-01-22T18:37:56.787Z,99899.11
2019-01-22T18:40:25.666Z,99896.97
2019-01-22T18:42:53.942Z,99892.21
2019-01-22T18:45:22.233Z,99889.53
2019-01-22T18:47:50.503Z,99890.59
2019-01-22T18:50:23.581Z,99887.64
2019-01-22T18:52:51.844Z,99889.52
2019-01-22T18:55:20.483Z,99894.84
2019-01-22T18:57:48.785Z,99887.66
2019-01-22T19:00:22.122Z,99885.83
2019-01-22T19:02:50.605Z,99893.51
2019-01-22T19:05:19.088Z,99889.78
2019-01-22T19:07:47.364Z,99883.39
2019-01-22T19:10:22.761Z,99887.12
2019-01-22T19:12:51.096Z,99890.08
2019-01-22T19:15:20.052Z,99887.16
2019-01-22T19:17:51.853Z,99884.75
2019-01-22T19:20:20.168Z,99881.80
2019-01-22T19:22:48.472Z,99884.48
2019-01-22T19:25:24.937Z,99879.66
2019-01-22T19:27:53.206Z,99884.97
2019-01-22T19:30:23.639Z,99882.59
2019-01-22T19:32:51.975Z,99872.75
2019-01-22T19:35:20.251Z,99874.87
2019-01-22T19:37:48.532Z,99873.55
2019-01-22T19:40:18.545Z,99878.87
2019-01-22T19:42:46.853Z,99878.35
2019-01-22T19:45:29.759Z,99873.84
2019-01-22T19:47:59.416Z,99874.91
2019-01-22T19:50:27.750Z,99874.34
2019-01-22T19:52:56.059Z,99873.03
2019-01-22T19:55:24.325Z,99868.52
2019-01-22T19:57:52.615Z,99866.11
2019-01-22T20:00:26.435Z,99867.67
2019-01-22T20:02:54.756Z,99857.03
2019-01-22T20:05:23.013Z,99854.66
2019-01-22T20:07:51.399Z,99855.70
2019-01-22T20:10:19.702Z,99852.23
2019-01-22T20:12:47.974Z,99845.59
2019-01-22T20:15:18.590Z,99844.80
2019-01-22T20:17:46.862Z,99845.05
2019-01-22T20:20:16.892Z,99848.77
2019-01-22T20:22:45.156Z,99846.88
2019-01-22T20:25:14.087Z,99845.06
2019-01-22T20:27:47.886Z,99845.03
2019-01-22T20:30:24.411Z,99843.41
2019-01-22T20:32:52.694Z,99842.63
2019-01-22T20:35:21.024Z,99843.14
2019-01-22T20:37:49.312Z,99842.33
2019-01-22T20:40:17.578Z,99840.46
2019-01-22T20:42:45.898Z,99837.54
2019-01-22T20:45:19.268Z,99832.45
2019-01-22T20:47:47.670Z,99823.66
2019-01-22T20:50:19.381Z,99832.94
2019-01-22T20:52:46.010Z,99827.31
2019-01-22T20:55:16.644Z,99827.09
2019-01-22T20:57:44.922Z,99826.25
2019-01-22T21:00:21.480Z,99823.06
2019-01-22T21:02:49.819Z,99821.99
2019-01-22T21:05:20.017Z,99821.99
2019-01-22T21:07:49.538Z,99823.83
2019-01-22T21:10:20.166Z,99825.44
2019-01-22T21:12:48.554Z,99827.82
2019-01-22T21:15:16.872Z,99818.77
2019-01-22T21:17:45.210Z,99817.45
2019-01-22T21:20:15.812Z,99812.91
2019-01-22T21:22:44.096Z,99814.73
2019-01-22T21:25:15.572Z,99818.98
2019-01-22T21:27:43.846Z,99817.63
2019-01-22T21:30:15.546Z,99817.13
2019-01-22T21:32:43.993Z,99809.94
2019-01-22T21:35:12.247Z,99820.55
2019-01-22T21:37:40.507Z,99811.22
2019-01-22T21:40:15.064Z,99814.94
2019-01-22T21:42:43.422Z,99808.80
2019-01-22T21:45:18.013Z,99809.37
2019-01-22T21:47:46.267Z,99806.17
2019-01-22T21:50:15.679Z,99811.47
2019-01-22T21:52:44.392Z,99809.34
2019-01-22T21:55:15.168Z,99807.17
2019-01-22T21:57:43.435Z,99803.73
2019-01-22T22:00:14.967Z,99796.04
2019-01-22T22:02:43.255Z,99797.86
2019-01-22T22:05:11.979Z,99796.27
2019-01-22T22:07:40.267Z,99789.11
2019-01-22T22:10:14.306Z,99786.73
2019-01-22T22:12:42.613Z,99790.70
2019-01-22T22:15:16.615Z,99792.03
2019-01-22T22:17:44.962Z,99782.98
2019-01-22T22:20:16.723Z,99785.91
2019-01-22T22:22:45.203Z,99782.47
2019-01-22T22:25:18.191Z,99783.48
2019-01-22T22:27:46.475Z,99779.00
2019-01-22T22:30:18.012Z,99781.89
2019-01-22T22:32:46.346Z,99780.54
2019-01-22T22:35:14.706Z,99783.98
2019-01-22T22:37:43.166Z,99779.45
2019-01-22T22:40:16.815Z,99777.61
2019-01-22T22:42:45.085Z,99779.99
2019-01-22T22:45:15.883Z,99778.10
2019-01-22T22:47:44.205Z,99781.84
2019-01-22T22:50:16.007Z,99776.78
2019-01-22T22:52:44.286Z,99774.12
2019-01-22T22:55:12.665Z,99772.56
2019-01-22T22:57:40.974Z,99774.40
2019-01-22T23:00:17.999Z,99776.55
2019-01-22T23:02:46.260Z,99771.23
2019-01-22T23:05:14.619Z,99780.25
2019-01-22T23:07:42.961Z,99777.30
2019-01-22T23:10:11.204Z,99775.41
2019-01-22T23:12:39.626Z,99766.14
2019-01-22T23:15:08.260Z,99774.88
2019-01-22T23:17:36.712Z,99770.08
2019-01-22T23:20:06.801Z,99770.83
2019-01-22T23:22:35.055Z,99766.56
2019-01-22T23:25:03.823Z,99774.79
2019-01-22T23:27:32.160Z,99763.09
2019-01-22T23:30:00.471Z,99760.18
2019-01-22T23:32:28.748Z,99758.60
2019-01-22T23:34:57.038Z,99756.98
2019-01-22T23:37:25.321Z,99758.56
2019-01-22T23:39:54.145Z,99762.54
2019-01-22T23:42:22.398Z,99756.95
2019-01-22T23:44:50.687Z,99756.64
2019-01-22T23:47:19.020Z,99757.67
2019-01-22T23:49:47.302Z,99747.54
2019-01-22T23:52:15.594Z,99750.73
2019-01-22T23:54:43.891Z,99754.72
2019-01-22T23:57:12.149Z,99754.20
2019-01-22T23:59:40.454Z,99747.28
